Time;durP1;ratioP1;P1;durP2;ratioP2;P2;SDS_P1;SDS_P2;PMS_P1;PMS_P2;Temp;Humidity;BMP_temperature;BMP_pressure;BME280_temperature;BME280_humidity;BME280_pressure;Samples;Min_cycle;Max_cycle;Signal;HPM_P1;HPM_P2
2024/01/11 00:00:51;;;;;;;0.10;0.10;;;;;;;;;;5062922;28;20084;-79
2024/01/11 00:03:18;;;;;;;0.10;0.10;;;;;;;;;;5073396;28;20045;-79
2024/01/11 00:05:44;;;;;;;0.00;0.00;;;;;;;;;;5043615;28;20076;-78
2024/01/11 00:08:11;;;;;;;0.10;0.10;;;;;;;;;;5048035;28;20546;-78
2024/01/11 00:10:38;;;;;;;0.00;0.00;;;;;;;;;;5066715;28;20053;-78
2024/01/11 00:13:04;;;;;;;0.00;0.00;;;;;;;;;;5063078;28;20071;-78
2024/01/11 00:15:30;;;;;;;0.00;0.00;;;;;;;;;;5043997;28;20061;-78
2024/01/11 00:17:57;;;;;;;0.08;0.08;;;;;;;;;;5049605;28;20068;-78
2024/01/11 00:20:24;;;;;;;0.08;0.08;;;;;;;;;;5046817;28;20059;-78
2024/01/11 00:22:50;;;;;;;0.00;0.00;;;;;;;;;;5057783;28;20107;-79
2024/01/11 00:25:17;;;;;;;0.00;0.00;;;;;;;;;;5073690;28;20053;-79
2024/01/11 00:27:43;;;;;;;0.00;0.00;;;;;;;;;;5051369;28;20052;-79
2024/01/11 00:30:10;;;;;;;0.00;0.00;;;;;;;;;;5047922;28;20053;-79
2024/01/11 00:32:36;;;;;;;0.00;0.00;;;;;;;;;;5040911;28;20093;-78
2024/01/11 00:35:03;;;;;;;0.00;0.00;;;;;;;;;;5053904;28;20447;-79
2024/01/11 00:37:30;;;;;;;0.00;0.00;;;;;;;;;;5052877;28;21134;-78
2024/01/11 00:39:57;;;;;;;0.00;0.00;;;;;;;;;;5054154;28;20053;-78
2024/01/11 00:42:23;;;;;;;0.00;0.00;;;;;;;;;;5052718;28;20057;-78
2024/01/11 00:44:50;;;;;;;0.00;0.00;;;;;;;;;;5062750;28;20062;-79
2024/01/11 00:47:16;;;;;;;0.00;0.00;;;;;;;;;;5041320;28;20127;-79
2024/01/11 00:49:43;;;;;;;0.00;0.00;;;;;;;;;;5064973;28;20581;-79
2024/01/11 00:52:09;;;;;;;0.00;0.00;;;;;;;;;;5052172;28;20076;-79
2024/01/11 00:54:36;;;;;;;0.00;0.00;;;;;;;;;;5046387;28;20058;-79
2024/01/11 00:57:02;;;;;;;0.00;0.00;;;;;;;;;;5048682;28;20081;-78
2024/01/11 00:59:29;;;;;;;0.05;0.05;;;;;;;;;;5066447;28;20055;-78
2024/01/11 01:01:56;;;;;;;0.00;0.00;;;;;;;;;;5070913;28;20106;-78
2024/01/11 01:04:22;;;;;;;0.03;0.03;;;;;;;;;;5046844;28;20029;-78
2024/01/11 01:06:49;;;;;;;0.00;0.00;;;;;;;;;;5044272;28;20093;-78
2024/01/11 01:09:15;;;;;;;0.10;0.10;;;;;;;;;;5061658;28;20050;-78
2024/01/11 01:11:42;;;;;;;0.00;0.00;;;;;;;;;;5065764;28;20088;-78
2024/01/11 01:14:08;;;;;;;0.00;0.00;;;;;;;;;;5053066;28;20052;-78
2024/01/11 01:16:35;;;;;;;0.10;0.10;;;;;;;;;;5053094;28;20061;-78
2024/01/11 01:19:01;;;;;;;0.08;0.08;;;;;;;;;;5048638;28;20045;-79
2024/01/11 01:21:28;;;;;;;0.00;0.00;;;;;;;;;;5045886;28;20668;-78
2024/01/11 01:23:54;;;;;;;0.00;0.00;;;;;;;;;;5067658;28;20045;-79
2024/01/11 01:26:21;;;;;;;0.00;0.00;;;;;;;;;;5070778;28;20041;-79
2024/01/11 01:28:47;;;;;;;0.10;0.10;;;;;;;;;;5066534;28;20055;-78
2024/01/11 01:31:14;;;;;;;0.22;0.22;;;;;;;;;;5059096;28;20053;-79
2024/01/11 01:33:40;;;;;;;0.10;0.10;;;;;;;;;;5072553;28;20057;-78
2024/01/11 01:36:08;;;;;;;0.00;0.00;;;;;;;;;;5053518;28;20602;-78
2024/01/11 01:38:34;;;;;;;0.00;0.00;;;;;;;;;;5068787;28;20126;-78
2024/01/11 01:41:01;;;;;;;0.00;0.00;;;;;;;;;;5051371;28;20057;-79
2024/01/11 01:43:27;;;;;;;0.00;0.00;;;;;;;;;;5048963;28;20112;-79
2024/01/11 01:45:54;;;;;;;0.00;0.00;;;;;;;;;;5038118;28;20053;-79
2024/01/11 01:48:21;;;;;;;1.40;1.38;;;;;;;;;;5051535;28;20056;-79
2024/01/11 01:50:50;;;;;;;0.00;0.00;;;;;;;;;;5055359;28;20048;-79
2024/01/11 01:53:19;;;;;;;0.00;0.00;;;;;;;;;;5047990;28;20061;-79
2024/01/11 01:55:46;;;;;;;0.03;0.03;;;;;;;;;;5041872;28;20064;-79
2024/01/11 01:58:12;;;;;;;0.00;0.00;;;;;;;;;;5047460;28;20598;-79
2024/01/11 02:00:41;;;;;;;0.00;0.00;;;;;;;;;;5072073;28;20589;-79
2024/01/11 02:03:08;;;;;;;0.00;0.00;;;;;;;;;;5054839;28;20648;-79
2024/01/11 02:05:35;;;;;;;0.00;0.00;;;;;;;;;;5047324;28;20045;-79
2024/01/11 02:08:03;;;;;;;0.00;0.00;;;;;;;;;;5044942;28;20068;-79
2024/01/11 02:10:32;;;;;;;0.10;0.10;;;;;;;;;;5050600;28;20515;-79
2024/01/11 02:12:59;;;;;;;0.00;0.00;;;;;;;;;;5066423;28;20058;-79
2024/01/11 02:15:25;;;;;;;0.00;0.00;;;;;;;;;;5049316;28;20064;-79
2024/01/11 02:17:52;;;;;;;0.00;0.00;;;;;;;;;;5049869;28;20057;-79
2024/01/11 02:20:19;;;;;;;0.00;0.00;;;;;;;;;;5047210;28;20061;-79
2024/01/11 02:22:52;;;;;;;0.00;0.00;;;;;;;;;;5047002;28;20436;-78
2024/01/11 02:25:19;;;;;;;0.00;0.00;;;;;;;;;;5050655;28;20933;-78
2024/01/11 02:27:49;;;;;;;0.10;0.10;;;;;;;;;;5047361;28;20172;-79
2024/01/11 02:30:16;;;;;;;0.00;0.00;;;;;;;;;;5043876;28;20802;-79
2024/01/11 02:32:46;;;;;;;0.00;0.00;;;;;;;;;;5044393;28;20509;-79
2024/01/11 02:35:14;;;;;;;0.00;0.00;;;;;;;;;;5047490;28;20059;-79
2024/01/11 02:37:41;;;;;;;0.20;0.20;;;;;;;;;;5046407;28;20601;-79
2024/01/11 02:40:08;;;;;;;0.00;0.00;;;;;;;;;;5050671;28;20056;-79
2024/01/11 02:42:35;;;;;;;0.00;0.00;;;;;;;;;;5074299;28;20090;-79
2024/01/11 02:45:03;;;;;;;0.00;0.00;;;;;;;;;;5068112;28;20053;-79
2024/01/11 02:47:29;;;;;;;0.00;0.00;;;;;;;;;;5055285;28;20111;-79
2024/01/11 02:49:56;;;;;;;13.15;8.30;;;;;;;;;;5069085;28;20045;-78
2024/01/11 02:52:24;;;;;;;0.00;0.00;;;;;;;;;;5071380;28;20949;-78
2024/01/11 02:54:50;;;;;;;0.00;0.00;;;;;;;;;;5115865;22;20164;-76
2024/01/11 02:57:17;;;;;;;0.00;0.00;;;;;;;;;;5046328;28;20058;-76
2024/01/11 02:59:43;;;;;;;0.00;0.00;;;;;;;;;;5039533;28;20168;-76
2024/01/11 03:02:10;;;;;;;0.00;0.00;;;;;;;;;;5030803;28;20504;-77
2024/01/11 03:04:36;;;;;;;0.10;0.10;;;;;;;;;;5025192;28;20046;-77
2024/01/11 03:07:03;;;;;;;6.60;6.22;;;;;;;;;;5026215;28;20100;-76
2024/01/11 03:09:29;;;;;;;0.00;0.00;;;;;;;;;;5024391;28;20054;-76
2024/01/11 03:11:55;;;;;;;0.00;0.00;;;;;;;;;;5026659;28;20133;-76
2024/01/11 03:14:22;;;;;;;0.00;0.00;;;;;;;;;;5023848;28;20058;-76
2024/01/11 03:16:48;;;;;;;0.00;0.00;;;;;;;;;;5022928;28;20104;-76
2024/01/11 03:19:15;;;;;;;0.00;0.00;;;;;;;;;;5007534;28;20492;-78
2024/01/11 03:21:43;;;;;;;0.00;0.00;;;;;;;;;;5024343;28;20057;-77
2024/01/11 03:24:09;;;;;;;0.00;0.00;;;;;;;;;;5023052;28;20052;-77
2024/01/11 03:26:36;;;;;;;0.00;0.00;;;;;;;;;;5025279;28;20132;-76
2024/01/11 03:29:02;;;;;;;0.00;0.00;;;;;;;;;;5024950;28;20054;-76
2024/01/11 03:31:29;;;;;;;0.00;0.00;;;;;;;;;;5006698;28;20128;-76
2024/01/11 03:33:55;;;;;;;0.00;0.00;;;;;;;;;;5024179;28;20554;-76
2024/01/11 03:36:23;;;;;;;0.00;0.00;;;;;;;;;;5026389;28;20073;-76
2024/01/11 03:38:50;;;;;;;0.10;0.10;;;;;;;;;;5022302;28;20054;-76
2024/01/11 03:41:18;;;;;;;0.00;0.00;;;;;;;;;;5028875;28;20061;-76
2024/01/11 03:43:44;;;;;;;0.00;0.00;;;;;;;;;;5025119;28;20050;-76
2024/01/11 03:46:10;;;;;;;0.00;0.00;;;;;;;;;;5023810;28;20509;-77
2024/01/11 03:48:37;;;;;;;0.10;0.10;;;;;;;;;;5024145;28;20054;-76
2024/01/11 03:51:03;;;;;;;0.00;0.00;;;;;;;;;;5026898;28;20050;-77
2024/01/11 03:53:30;;;;;;;0.00;0.00;;;;;;;;;;5026583;28;21038;-77
2024/01/11 03:55:56;;;;;;;0.00;0.00;;;;;;;;;;5028593;28;20081;-77
2024/01/11 03:58:23;;;;;;;0.00;0.00;;;;;;;;;;5035149;28;20124;-76
2024/01/11 04:00:50;;;;;;;0.00;0.00;;;;;;;;;;5031273;28;20065;-76
2024/01/11 04:03:16;;;;;;;0.00;0.00;;;;;;;;;;5006512;28;20587;-77
2024/01/11 04:05:43;;;;;;;0.00;0.00;;;;;;;;;;5029984;28;20089;-77
2024/01/11 04:08:10;;;;;;;0.00;0.00;;;;;;;;;;5024954;28;20056;-76
2024/01/11 04:10:36;;;;;;;0.00;0.00;;;;;;;;;;5028777;28;20057;-77
2024/01/11 04:13:03;;;;;;;0.10;0.10;;;;;;;;;;5026932;28;20108;-76
2024/01/11 04:15:29;;;;;;;0.10;0.10;;;;;;;;;;5029884;28;20054;-76
2024/01/11 04:17:56;;;;;;;0.10;0.10;;;;;;;;;;5025093;28;20467;-76
2024/01/11 04:20:24;;;;;;;0.00;0.00;;;;;;;;;;5028390;28;20534;-77
2024/01/11 04:22:50;;;;;;;0.00;0.00;;;;;;;;;;5027120;28;20141;-77
2024/01/11 04:25:16;;;;;;;0.00;0.00;;;;;;;;;;5029674;28;20089;-76
2024/01/11 04:27:43;;;;;;;0.00;0.00;;;;;;;;;;5025683;28;20124;-76
2024/01/11 04:30:09;;;;;;;0.00;0.00;;;;;;;;;;5028219;28;20062;-77
2024/01/11 04:32:36;;;;;;;0.00;0.00;;;;;;;;;;5026557;28;20054;-77
2024/01/11 04:35:03;;;;;;;0.00;0.00;;;;;;;;;;5029478;28;20058;-77
2024/01/11 04:37:29;;;;;;;0.00;0.00;;;;;;;;;;5009776;28;20046;-76
2024/01/11 04:39:59;;;;;;;0.00;0.00;;;;;;;;;;5011290;28;20574;-77
2024/01/11 04:42:29;;;;;;;0.10;0.10;;;;;;;;;;5018780;28;20948;-77
2024/01/11 04:44:55;;;;;;;0.00;0.00;;;;;;;;;;5030934;28;20053;-76
2024/01/11 04:47:22;;;;;;;0.00;0.00;;;;;;;;;;5025653;28;20081;-76
2024/01/11 04:49:48;;;;;;;0.08;0.08;;;;;;;;;;5028202;28;20073;-76
2024/01/11 04:52:15;;;;;;;0.00;0.00;;;;;;;;;;5017033;28;20050;-77
2024/01/11 04:54:41;;;;;;;0.10;0.10;;;;;;;;;;5028279;28;20108;-77
2024/01/11 04:57:07;;;;;;;21.10;19.55;;;;;;;;;;5011003;28;20137;-76
2024/01/11 04:59:34;;;;;;;0.00;0.00;;;;;;;;;;5025125;28;20135;-76
2024/01/11 05:02:00;;;;;;;0.00;0.00;;;;;;;;;;5027010;28;20050;-76
2024/01/11 05:04:27;;;;;;;0.68;0.68;;;;;;;;;;5027885;28;20057;-76
2024/01/11 05:06:53;;;;;;;3.38;3.13;;;;;;;;;;5028413;28;20135;-76
2024/01/11 05:09:19;;;;;;;0.00;0.00;;;;;;;;;;5027955;28;20081;-76
2024/01/11 05:11:46;;;;;;;0.00;0.00;;;;;;;;;;5028228;28;20137;-76
2024/01/11 05:14:12;;;;;;;0.00;0.00;;;;;;;;;;5028537;28;20053;-76
2024/01/11 05:16:40;;;;;;;0.10;0.10;;;;;;;;;;5013787;28;20558;-76
2024/01/11 05:19:07;;;;;;;0.00;0.00;;;;;;;;;;5028645;28;20221;-76
2024/01/11 05:21:33;;;;;;;0.08;0.08;;;;;;;;;;5027268;28;20569;-76
2024/01/11 05:24:00;;;;;;;0.00;0.00;;;;;;;;;;5027833;28;20132;-76
2024/01/11 05:26:27;;;;;;;0.00;0.00;;;;;;;;;;5027644;28;20054;-76
2024/01/11 05:28:53;;;;;;;0.00;0.00;;;;;;;;;;5027883;28;20127;-76
2024/01/11 05:31:20;;;;;;;0.00;0.00;;;;;;;;;;5030841;28;20108;-76
2024/01/11 05:33:47;;;;;;;0.00;0.00;;;;;;;;;;5028098;28;20065;-77
2024/01/11 05:36:14;;;;;;;4.18;3.88;;;;;;;;;;5027719;28;20050;-76
2024/01/11 05:38:41;;;;;;;0.00;0.00;;;;;;;;;;5028454;28;20065;-77
2024/01/11 05:41:08;;;;;;;0.00;0.00;;;;;;;;;;5027950;28;20054;-76
2024/01/11 05:43:36;;;;;;;0.00;0.00;;;;;;;;;;5009836;28;20058;-77
2024/01/11 05:46:03;;;;;;;0.00;0.00;;;;;;;;;;5012400;28;20064;-77
2024/01/11 05:48:29;;;;;;;0.00;0.00;;;;;;;;;;5005827;28;20436;-76
2024/01/11 05:50:56;;;;;;;0.00;0.00;;;;;;;;;;5025583;28;20085;-76
2024/01/11 05:53:22;;;;;;;0.00;0.00;;;;;;;;;;5019258;28;20057;-77
2024/01/11 05:55:49;;;;;;;0.00;0.00;;;;;;;;;;5008855;28;20054;-76
2024/01/11 05:58:19;;;;;;;0.00;0.00;;;;;;;;;;5025642;28;20682;-76
2024/01/11 06:00:46;;;;;;;0.00;0.00;;;;;;;;;;5027963;28;20501;-77
2024/01/11 06:03:13;;;;;;;0.00;0.00;;;;;;;;;;5026775;28;20059;-76
2024/01/11 06:05:39;;;;;;;0.00;0.00;;;;;;;;;;5027608;28;20054;-76
2024/01/11 06:08:06;;;;;;;0.00;0.00;;;;;;;;;;5027321;28;20524;-76
2024/01/11 06:10:33;;;;;;;0.30;0.30;;;;;;;;;;5035894;28;20058;-76
2024/01/11 06:12:59;;;;;;;0.00;0.00;;;;;;;;;;5026995;28;20054;-76
2024/01/11 06:15:26;;;;;;;0.00;0.00;;;;;;;;;;5026692;28;20108;-76
2024/01/11 06:17:52;;;;;;;0.08;0.08;;;;;;;;;;5026803;28;20387;-77
2024/01/11 06:20:19;;;;;;;0.00;0.00;;;;;;;;;;5010561;28;20054;-77
2024/01/11 06:22:45;;;;;;;0.00;0.00;;;;;;;;;;5023832;28;20101;-77
2024/01/11 06:25:12;;;;;;;0.00;0.00;;;;;;;;;;5026937;28;20058;-77
2024/01/11 06:27:38;;;;;;;0.00;0.00;;;;;;;;;;5026380;28;20097;-77
2024/01/11 06:30:06;;;;;;;0.43;0.43;;;;;;;;;;5027247;28;20104;-77
2024/01/11 06:32:33;;;;;;;0.00;0.00;;;;;;;;;;5026132;28;20054;-77
2024/01/11 06:35:00;;;;;;;0.00;0.00;;;;;;;;;;5025675;28;20060;-77
2024/01/11 06:37:26;;;;;;;0.00;0.00;;;;;;;;;;5008572;28;20212;-77
2024/01/11 06:39:53;;;;;;;0.00;0.00;;;;;;;;;;5022681;28;20061;-77
2024/01/11 06:42:19;;;;;;;0.10;0.10;;;;;;;;;;5025048;28;20054;-77
2024/01/11 06:44:45;;;;;;;2.83;2.17;;;;;;;;;;5009722;28;20133;-77
2024/01/11 06:47:12;;;;;;;0.00;0.00;;;;;;;;;;5006356;28;20062;-77
2024/01/11 06:49:39;;;;;;;0.00;0.00;;;;;;;;;;5027578;28;20058;-76
2024/01/11 06:52:06;;;;;;;0.00;0.00;;;;;;;;;;5025614;28;20112;-77
2024/01/11 06:54:32;;;;;;;0.00;0.00;;;;;;;;;;5009109;28;20085;-77
2024/01/11 06:56:59;;;;;;;0.05;0.05;;;;;;;;;;5019878;28;20060;-77
2024/01/11 06:59:25;;;;;;;0.00;0.00;;;;;;;;;;5020468;28;20058;-77
2024/01/11 07:01:52;;;;;;;0.00;0.00;;;;;;;;;;5016028;28;20109;-77
2024/01/11 07:04:18;;;;;;;0.00;0.00;;;;;;;;;;5022797;28;20058;-77
2024/01/11 07:06:45;;;;;;;0.00;0.00;;;;;;;;;;5024408;28;20156;-77
2024/01/11 07:09:12;;;;;;;0.10;0.10;;;;;;;;;;5025287;28;20046;-77
2024/01/11 07:11:38;;;;;;;0.10;0.10;;;;;;;;;;5006180;28;20061;-77
2024/01/11 07:14:05;;;;;;;1.88;1.75;;;;;;;;;;5022588;28;20619;-77
2024/01/11 07:16:31;;;;;;;0.43;0.43;;;;;;;;;;5020286;28;20105;-77
2024/01/11 07:18:58;;;;;;;0.00;0.00;;;;;;;;;;5021934;28;20082;-77
2024/01/11 07:21:31;;;;;;;0.00;0.00;;;;;;;;;;5023928;28;20540;-78
2024/01/11 07:23:58;;;;;;;0.10;0.10;;;;;;;;;;5020978;28;20054;-77
2024/01/11 07:26:25;;;;;;;0.95;0.95;;;;;;;;;;5032777;28;20131;-77
2024/01/11 07:28:54;;;;;;;0.00;0.00;;;;;;;;;;5032412;28;20516;-77
2024/01/11 07:31:21;;;;;;;0.00;0.00;;;;;;;;;;5026975;28;20101;-78
2024/01/11 07:33:47;;;;;;;0.00;0.00;;;;;;;;;;5030517;28;20042;-77
2024/01/11 07:36:14;;;;;;;0.00;0.00;;;;;;;;;;5043586;28;20064;-78
2024/01/11 07:38:40;;;;;;;0.20;0.20;;;;;;;;;;5031585;28;20064;-77
2024/01/11 07:41:07;;;;;;;0.00;0.00;;;;;;;;;;5037763;28;20081;-78
2024/01/11 07:43:35;;;;;;;5.13;1.45;;;;;;;;;;5036687;28;20141;-78
2024/01/11 07:46:18;;;;;;;0.00;0.00;;;;;;;;;;5028355;28;20133;-78
2024/01/11 07:48:44;;;;;;;0.10;0.10;;;;;;;;;;5029272;28;20077;-78
2024/01/11 07:51:11;;;;;;;3.53;3.30;;;;;;;;;;5030354;28;20058;-78
2024/01/11 07:53:37;;;;;;;3.30;2.35;;;;;;;;;;5020686;28;20211;-78
2024/01/11 07:56:04;;;;;;;0.00;0.00;;;;;;;;;;5032081;28;20144;-78
2024/01/11 07:58:30;;;;;;;0.00;0.00;;;;;;;;;;5045530;28;20508;-78
2024/01/11 08:00:57;;;;;;;0.00;0.00;;;;;;;;;;5028692;28;20054;-78
2024/01/11 08:03:23;;;;;;;0.75;0.75;;;;;;;;;;5034729;28;20061;-78
2024/01/11 08:05:50;;;;;;;0.00;0.00;;;;;;;;;;5024759;28;20569;-77
2024/01/11 08:08:17;;;;;;;1.95;1.27;;;;;;;;;;5032520;28;20054;-78
2024/01/11 08:10:43;;;;;;;0.00;0.00;;;;;;;;;;5025942;28;20049;-78
2024/01/11 08:13:10;;;;;;;0.00;0.00;;;;;;;;;;5027042;28;20500;-78
2024/01/11 08:15:37;;;;;;;0.00;0.00;;;;;;;;;;5026969;28;20578;-78
2024/01/11 08:18:04;;;;;;;0.00;0.00;;;;;;;;;;5027453;28;20061;-78
2024/01/11 08:20:32;;;;;;;0.00;0.00;;;;;;;;;;5008707;28;20053;-78
2024/01/11 08:22:59;;;;;;;0.00;0.00;;;;;;;;;;5036198;28;20064;-78
2024/01/11 08:25:25;;;;;;;0.00;0.00;;;;;;;;;;5034973;28;20109;-78
2024/01/11 08:27:52;;;;;;;4.13;3.83;;;;;;;;;;5036875;28;20507;-78
2024/01/11 08:30:18;;;;;;;0.00;0.00;;;;;;;;;;5033644;28;20061;-78
2024/01/11 08:32:45;;;;;;;0.00;0.00;;;;;;;;;;5042792;28;20143;-78
2024/01/11 08:35:11;;;;;;;0.00;0.00;;;;;;;;;;5033600;28;20042;-78
2024/01/11 08:37:39;;;;;;;0.10;0.10;;;;;;;;;;5032237;28;20451;-77
2024/01/11 08:40:06;;;;;;;0.00;0.00;;;;;;;;;;5035551;28;20050;-78
2024/01/11 08:42:32;;;;;;;0.00;0.00;;;;;;;;;;5028847;28;20066;-78
2024/01/11 08:45:03;;;;;;;0.00;0.00;;;;;;;;;;5034888;28;20474;-78
2024/01/11 08:47:30;;;;;;;0.00;0.00;;;;;;;;;;5031218;28;20050;-78
2024/01/11 08:49:56;;;;;;;0.20;0.20;;;;;;;;;;5026688;28;20085;-79
2024/01/11 08:52:23;;;;;;;1.75;1.65;;;;;;;;;;5027555;28;20062;-79
2024/01/11 08:54:49;;;;;;;1.65;1.55;;;;;;;;;;5009873;28;20061;-79
2024/01/11 08:57:17;;;;;;;0.40;0.40;;;;;;;;;;5025852;28;20140;-78
2024/01/11 08:59:44;;;;;;;0.10;0.10;;;;;;;;;;5011048;28;20206;-78
2024/01/11 09:02:10;;;;;;;0.00;0.00;;;;;;;;;;5024247;28;20046;-78
2024/01/11 09:04:44;;;;;;;0.10;0.10;;;;;;;;;;5026981;28;20053;-78
2024/01/11 09:07:10;;;;;;;0.10;0.10;;;;;;;;;;5008528;28;20061;-79
2024/01/11 09:09:37;;;;;;;0.15;0.15;;;;;;;;;;5032321;28;20061;-78
2024/01/11 09:12:16;;;;;;;0.00;0.00;;;;;;;;;;5032951;28;20065;-78
2024/01/11 09:14:42;;;;;;;0.00;0.00;;;;;;;;;;5031416;28;20053;-79
2024/01/11 09:17:08;;;;;;;0.00;0.00;;;;;;;;;;5035963;28;20578;-79
2024/01/11 09:19:37;;;;;;;0.00;0.00;;;;;;;;;;5030221;28;20068;-78
2024/01/11 09:22:03;;;;;;;0.00;0.00;;;;;;;;;;5035634;28;20061;-78
2024/01/11 09:24:30;;;;;;;0.00;0.00;;;;;;;;;;5034375;28;20057;-78
2024/01/11 09:27:03;;;;;;;0.00;0.00;;;;;;;;;;5025429;28;20607;-79
2024/01/11 09:29:30;;;;;;;6.40;5.93;;;;;;;;;;5025754;28;20145;-78
2024/01/11 09:31:56;;;;;;;0.10;0.10;;;;;;;;;;5007376;28;20088;-79
2024/01/11 09:34:23;;;;;;;0.00;0.00;;;;;;;;;;5018527;28;20141;-78
2024/01/11 09:36:50;;;;;;;0.00;0.00;;;;;;;;;;5018246;28;20531;-78
2024/01/11 09:39:16;;;;;;;2.85;2.60;;;;;;;;;;5022368;28;20149;-78
2024/01/11 09:41:49;;;;;;;0.30;0.30;;;;;;;;;;5018752;28;20045;-78
2024/01/11 09:44:16;;;;;;;0.03;0.03;;;;;;;;;;5025780;28;20101;-79
2024/01/11 09:46:42;;;;;;;0.08;0.08;;;;;;;;;;5021254;28;20484;-78
2024/01/11 09:49:10;;;;;;;0.00;0.00;;;;;;;;;;5024642;28;20062;-78
2024/01/11 09:51:38;;;;;;;0.00;0.00;;;;;;;;;;5032414;28;20057;-78
2024/01/11 09:54:04;;;;;;;0.57;0.57;;;;;;;;;;5016552;28;20094;-78
2024/01/11 09:56:31;;;;;;;0.00;0.00;;;;;;;;;;5036756;28;20057;-78
2024/01/11 09:58:58;;;;;;;0.70;0.70;;;;;;;;;;5028845;28;20562;-78
2024/01/11 10:01:25;;;;;;;0.00;0.00;;;;;;;;;;5038463;28;20061;-78
2024/01/11 10:03:52;;;;;;;0.00;0.00;;;;;;;;;;5031660;28;20057;-78
2024/01/11 10:06:21;;;;;;;0.20;0.20;;;;;;;;;;5012742;28;20124;-79
2024/01/11 10:08:48;;;;;;;0.10;0.10;;;;;;;;;;5030711;28;20504;-79
2024/01/11 10:11:15;;;;;;;0.00;0.00;;;;;;;;;;5024784;28;20053;-78
2024/01/11 10:13:41;;;;;;;0.00;0.00;;;;;;;;;;5025553;28;20050;-78
2024/01/11 10:16:09;;;;;;;0.00;0.00;;;;;;;;;;5022801;28;20143;-79
2024/01/11 10:18:36;;;;;;;0.00;0.00;;;;;;;;;;5018085;28;20057;-79
2024/01/11 10:21:03;;;;;;;0.00;0.00;;;;;;;;;;5023486;28;20128;-79
2024/01/11 10:23:33;;;;;;;0.10;0.10;;;;;;;;;;5036007;28;20057;-77
2024/01/11 10:25:59;;;;;;;0.00;0.00;;;;;;;;;;5008666;28;20054;-79
2024/01/11 10:28:26;;;;;;;0.00;0.00;;;;;;;;;;5008567;28;20521;-78
2024/01/11 10:30:54;;;;;;;0.00;0.00;;;;;;;;;;5026115;28;20064;-79
2024/01/11 10:33:21;;;;;;;0.00;0.00;;;;;;;;;;5008303;28;20054;-79
2024/01/11 10:35:50;;;;;;;0.52;0.52;;;;;;;;;;5026054;28;20971;-78
2024/01/11 10:38:20;;;;;;;0.10;0.10;;;;;;;;;;5006499;28;20084;-78
2024/01/11 10:40:46;;;;;;;0.00;0.00;;;;;;;;;;5008999;28;20054;-79
2024/01/11 10:43:16;;;;;;;0.05;0.05;;;;;;;;;;5008057;28;20053;-78
2024/01/11 10:45:44;;;;;;;0.07;0.07;;;;;;;;;;5026150;28;20068;-78
2024/01/11 10:48:15;;;;;;;0.10;0.10;;;;;;;;;;5025062;28;20261;-78
2024/01/11 10:50:42;;;;;;;0.00;0.00;;;;;;;;;;5018147;28;20058;-78
2024/01/11 10:53:12;;;;;;;0.10;0.10;;;;;;;;;;5025762;28;20050;-78
2024/01/11 10:55:39;;;;;;;0.10;0.10;;;;;;;;;;5019001;28;20065;-78
2024/01/11 10:58:06;;;;;;;0.05;0.05;;;;;;;;;;5037994;28;20156;-78
2024/01/11 11:00:35;;;;;;;0.00;0.00;;;;;;;;;;5025272;28;20440;-77
2024/01/11 11:03:02;;;;;;;0.00;0.00;;;;;;;;;;5005858;28;20062;-78
2024/01/11 11:05:30;;;;;;;0.00;0.00;;;;;;;;;;5007239;28;20054;-78
2024/01/11 11:07:57;;;;;;;0.10;0.10;;;;;;;;;;5025687;28;20128;-77
2024/01/11 11:10:25;;;;;;;0.00;0.00;;;;;;;;;;5006540;28;20442;-77
2024/01/11 11:12:53;;;;;;;0.10;0.10;;;;;;;;;;5029894;28;20542;-78
2024/01/11 11:15:21;;;;;;;0.10;0.10;;;;;;;;;;5030688;28;20610;-78
2024/01/11 11:17:49;;;;;;;0.10;0.10;;;;;;;;;;5022722;28;20524;-78
2024/01/11 11:20:16;;;;;;;0.00;0.00;;;;;;;;;;5024846;28;20054;-77
2024/01/11 11:22:42;;;;;;;0.00;0.00;;;;;;;;;;5032759;28;20081;-77
2024/01/11 11:25:10;;;;;;;3.55;1.98;;;;;;;;;;5024023;28;20080;-77
2024/01/11 11:27:37;;;;;;;0.00;0.00;;;;;;;;;;5006282;28;20054;-77
2024/01/11 11:30:04;;;;;;;0.10;0.10;;;;;;;;;;5007837;28;20492;-77
2024/01/11 11:32:37;;;;;;;0.00;0.00;;;;;;;;;;5012607;28;20062;-77
2024/01/11 11:35:05;;;;;;;0.30;0.30;;;;;;;;;;5024392;28;20614;-77
2024/01/11 11:37:31;;;;;;;0.10;0.10;;;;;;;;;;5024124;28;20543;-77
2024/01/11 11:39:58;;;;;;;0.00;0.00;;;;;;;;;;5024805;28;20046;-78
2024/01/11 11:42:30;;;;;;;0.10;0.10;;;;;;;;;;5024210;28;20472;-77
2024/01/11 11:44:57;;;;;;;0.00;0.00;;;;;;;;;;5020148;28;20563;-76
2024/01/11 11:47:24;;;;;;;0.10;0.10;;;;;;;;;;5032939;28;20061;-77
2024/01/11 11:49:58;;;;;;;0.10;0.10;;;;;;;;;;5014718;28;20058;-77
2024/01/11 11:52:24;;;;;;;0.10;0.10;;;;;;;;;;5024974;28;20093;-76
2024/01/11 11:54:51;;;;;;;0.03;0.03;;;;;;;;;;5006824;28;20053;-76
2024/01/11 11:57:19;;;;;;;0.10;0.10;;;;;;;;;;5016442;28;20054;-78
2024/01/11 11:59:46;;;;;;;0.00;0.00;;;;;;;;;;5006770;28;20169;-77
2024/01/11 12:02:15;;;;;;;0.03;0.03;;;;;;;;;;5017993;28;20058;-78
2024/01/11 12:04:46;;;;;;;0.10;0.10;;;;;;;;;;5015335;28;20085;-78
2024/01/11 12:07:13;;;;;;;0.10;0.10;;;;;;;;;;5025002;28;20145;-78
2024/01/11 12:09:39;;;;;;;0.10;0.10;;;;;;;;;;5021784;28;20049;-78
2024/01/11 12:12:06;;;;;;;0.10;0.10;;;;;;;;;;5028692;28;20058;-78
2024/01/11 12:14:41;;;;;;;0.10;0.10;;;;;;;;;;5025651;28;20180;-78
2024/01/11 12:17:08;;;;;;;0.10;0.10;;;;;;;;;;5025500;28;20054;-77
2024/01/11 12:19:35;;;;;;;0.10;0.10;;;;;;;;;;5024145;28;20803;-77
2024/01/11 12:22:01;;;;;;;0.03;0.03;;;;;;;;;;5023722;28;20141;-77
2024/01/11 12:24:30;;;;;;;0.00;0.00;;;;;;;;;;5026545;28;20057;-77
2024/01/11 12:26:59;;;;;;;0.10;0.10;;;;;;;;;;5041444;28;20056;-76
2024/01/11 12:29:28;;;;;;;0.10;0.10;;;;;;;;;;5047806;28;20060;-78
2024/01/11 12:32:00;;;;;;;0.30;0.30;;;;;;;;;;5027044;28;21001;-77
2024/01/11 12:34:27;;;;;;;0.05;0.05;;;;;;;;;;5024398;28;20045;-77
2024/01/11 12:36:55;;;;;;;0.10;0.10;;;;;;;;;;5008757;28;20054;-77
2024/01/11 12:39:24;;;;;;;0.10;0.10;;;;;;;;;;5027476;28;20053;-77
2024/01/11 12:41:53;;;;;;;0.10;0.10;;;;;;;;;;5021397;28;20559;-77
2024/01/11 12:44:20;;;;;;;0.10;0.10;;;;;;;;;;5024475;28;20062;-77
2024/01/11 12:46:51;;;;;;;0.10;0.10;;;;;;;;;;5027172;28;20146;-77
2024/01/11 12:49:17;;;;;;;0.10;0.10;;;;;;;;;;5017460;28;20054;-77
2024/01/11 12:51:44;;;;;;;0.05;0.05;;;;;;;;;;5009626;28;20160;-77
2024/01/11 12:54:19;;;;;;;0.00;0.00;;;;;;;;;;5009921;28;20695;-77
2024/01/11 12:56:46;;;;;;;0.10;0.10;;;;;;;;;;5025993;28;20054;-76
2024/01/11 12:59:13;;;;;;;0.17;0.17;;;;;;;;;;5026453;28;20089;-77
2024/01/11 13:01:39;;;;;;;0.10;0.10;;;;;;;;;;5027497;28;20475;-76
2024/01/11 13:04:08;;;;;;;0.10;0.10;;;;;;;;;;5025728;28;20058;-76
2024/01/11 13:06:35;;;;;;;0.10;0.10;;;;;;;;;;5025504;28;20178;-76
2024/01/11 13:09:01;;;;;;;0.00;0.00;;;;;;;;;;5023877;28;20141;-76
2024/01/11 13:11:29;;;;;;;0.10;0.10;;;;;;;;;;5015290;28;20204;-77
2024/01/11 13:13:57;;;;;;;0.10;0.10;;;;;;;;;;5008857;28;20520;-76
2024/01/11 13:16:24;;;;;;;0.10;0.10;;;;;;;;;;5023821;28;20072;-76
2024/01/11 13:18:50;;;;;;;0.10;0.10;;;;;;;;;;5018093;28;20136;-76
2024/01/11 13:21:17;;;;;;;0.10;0.10;;;;;;;;;;5026959;28;20169;-76
2024/01/11 13:23:43;;;;;;;0.10;0.10;;;;;;;;;;5025580;28;20179;-76
2024/01/11 13:26:10;;;;;;;0.10;0.10;;;;;;;;;;5004554;28;20054;-76
2024/01/11 13:28:37;;;;;;;0.10;0.10;;;;;;;;;;5025807;28;20080;-76
2024/01/11 13:31:03;;;;;;;0.10;0.10;;;;;;;;;;5027068;28;20061;-76
2024/01/11 13:33:30;;;;;;;0.10;0.10;;;;;;;;;;5025894;28;20061;-76
2024/01/11 13:35:57;;;;;;;0.10;0.10;;;;;;;;;;5026374;28;20054;-76
2024/01/11 13:38:23;;;;;;;0.22;0.22;;;;;;;;;;5024443;28;20076;-76
2024/01/11 13:40:51;;;;;;;0.10;0.10;;;;;;;;;;5027394;28;20420;-76
2024/01/11 13:43:17;;;;;;;0.10;0.10;;;;;;;;;;5008863;28;20057;-75
2024/01/11 13:45:44;;;;;;;0.10;0.10;;;;;;;;;;5007544;28;20058;-76
2024/01/11 13:48:11;;;;;;;0.05;0.05;;;;;;;;;;5017740;28;20061;-76
2024/01/11 13:50:37;;;;;;;0.10;0.10;;;;;;;;;;5028531;28;20131;-76
2024/01/11 13:53:04;;;;;;;0.17;0.17;;;;;;;;;;5034060;28;20053;-76
2024/01/11 13:55:37;;;;;;;0.10;0.10;;;;;;;;;;5026428;28;20058;-76
2024/01/11 13:58:05;;;;;;;0.00;0.00;;;;;;;;;;5027351;28;20140;-76
2024/01/11 14:00:31;;;;;;;0.10;0.10;;;;;;;;;;5015653;28;20054;-76
2024/01/11 14:02:58;;;;;;;0.10;0.10;;;;;;;;;;5017072;28;20054;-76
2024/01/11 14:05:24;;;;;;;0.10;0.10;;;;;;;;;;5025815;28;20085;-76
2024/01/11 14:07:57;;;;;;;0.10;0.10;;;;;;;;;;5024506;28;20589;-75
2024/01/11 14:10:24;;;;;;;0.10;0.10;;;;;;;;;;4998531;28;20058;-76
2024/01/11 14:12:53;;;;;;;0.10;0.10;;;;;;;;;;5007121;28;20085;-76
2024/01/11 14:15:20;;;;;;;0.10;0.10;;;;;;;;;;5021289;28;20487;-76
2024/01/11 14:17:47;;;;;;;0.10;0.10;;;;;;;;;;5026024;28;20049;-76
2024/01/11 14:20:14;;;;;;;0.10;0.10;;;;;;;;;;5005079;28;20058;-76
2024/01/11 14:22:46;;;;;;;0.10;0.10;;;;;;;;;;5032881;28;20135;-76
2024/01/11 14:25:13;;;;;;;0.10;0.10;;;;;;;;;;5025475;28;20050;-76
2024/01/11 14:27:41;;;;;;;0.10;0.10;;;;;;;;;;5026119;28;20061;-76
2024/01/11 14:30:07;;;;;;;0.10;0.10;;;;;;;;;;5007603;28;20069;-76
2024/01/11 14:32:34;;;;;;;0.00;0.00;;;;;;;;;;5024536;28;20520;-76
2024/01/11 14:35:04;;;;;;;0.10;0.10;;;;;;;;;;5024814;28;20590;-76
2024/01/11 14:37:31;;;;;;;0.00;0.00;;;;;;;;;;5025078;28;20058;-76
2024/01/11 14:39:58;;;;;;;0.10;0.10;;;;;;;;;;5026233;28;20053;-76
2024/01/11 14:42:25;;;;;;;0.10;0.10;;;;;;;;;;5025110;28;20057;-76